createdAt,value
2023-01-11T00:00:23.195Z,102210.47
2023-01-11T00:00:47.566Z,102208.41
2023-01-11T00:01:11.059Z,102207.04
2023-01-11T00:01:33.051Z,102208.39
2023-01-11T00:01:55.290Z,102207.02
2023-01-11T00:02:17.033Z,102205.13
2023-01-11T00:02:38.753Z,102204.77
2023-01-11T00:03:01.517Z,102203.05
2023-01-11T00:03:23.194Z,102203.53
2023-01-11T00:03:44.883Z,102204.36
2023-01-11T00:04:06.992Z,102202.98
2023-01-11T00:04:29.700Z,102206.55
2023-01-11T00:04:51.963Z,102207.20
2023-01-11T00:05:13.967Z,102206.67
2023-01-11T00:05:39.736Z,102205.29
2023-01-11T00:06:02.002Z,102204.57
2023-01-11T00:06:23.931Z,102203.35
2023-01-11T00:06:46.762Z,102202.31
2023-01-11T00:07:09.014Z,102201.95
2023-01-11T00:07:30.811Z,102200.40
2023-01-11T00:07:52.490Z,102204.99
2023-01-11T00:08:14.184Z,102201.89
2023-01-11T00:08:36.081Z,102203.08
2023-01-11T00:08:59.075Z,102207.19
2023-01-11T00:09:20.680Z,102202.05
2023-01-11T00:09:42.289Z,102203.95
2023-01-11T00:10:04.325Z,102202.08
2023-01-11T00:10:26.513Z,102207.06
2023-01-11T00:10:48.299Z,102205.38
2023-01-11T00:11:12.061Z,102206.43
2023-01-11T00:11:34.214Z,102204.91
2023-01-11T00:11:55.901Z,102206.14
2023-01-11T00:12:17.891Z,102210.27
2023-01-11T00:12:39.573Z,102209.41
2023-01-11T00:13:01.359Z,102213.70
2023-01-11T00:13:23.281Z,102213.72
2023-01-11T00:13:45.342Z,102210.14
2023-01-11T00:14:07.023Z,102213.55
2023-01-11T00:14:28.699Z,102212.36
2023-01-11T00:14:50.379Z,102214.44
2023-01-11T00:15:12.436Z,102213.08
2023-01-11T00:15:34.771Z,102217.52
2023-01-11T00:15:56.466Z,102219.08
2023-01-11T00:16:18.218Z,102216.18
2023-01-11T00:16:39.920Z,102213.30
2023-01-11T00:17:01.599Z,102223.20
2023-01-11T00:17:23.589Z,102223.04
2023-01-11T00:17:45.477Z,102221.16
2023-01-11T00:18:07.261Z,102227.34
2023-01-11T00:18:29.353Z,102221.87
2023-01-11T00:18:50.870Z,102219.48
2023-01-11T00:19:12.724Z,102227.86
2023-01-11T00:19:34.703Z,102226.52
2023-01-11T00:19:56.392Z,102228.73
2023-01-11T00:20:18.893Z,102224.81
2023-01-11T00:20:41.081Z,102222.77
2023-01-11T00:21:05.046Z,102221.41
2023-01-11T00:21:26.908Z,102224.49
2023-01-11T00:21:48.890Z,102222.98
2023-01-11T00:22:10.688Z,102222.30
2023-01-11T00:22:32.278Z,102225.72
2023-01-11T00:22:53.817Z,102220.42
2023-01-11T00:23:15.824Z,102221.63
2023-01-11T00:23:39.478Z,102223.00
2023-01-11T00:24:01.234Z,102221.64
2023-01-11T00:24:23.051Z,102217.55
2023-01-11T00:24:44.700Z,102217.55
2023-01-11T00:25:06.892Z,102219.41
2023-01-11T00:25:28.633Z,102219.41
2023-01-11T00:25:50.350Z,102212.56
2023-01-11T00:26:12.562Z,102211.52
2023-01-11T00:26:35.173Z,102214.08
2023-01-11T00:26:56.940Z,102210.63
2023-01-11T00:27:18.661Z,102209.25
2023-01-11T00:27:40.425Z,102204.95
2023-01-11T00:28:02.291Z,102205.44
2023-01-11T00:28:24.382Z,102203.04
2023-01-11T00:28:47.703Z,102202.83
2023-01-11T00:29:09.218Z,102203.85
2023-01-11T00:29:30.974Z,102205.02
2023-01-11T00:29:52.613Z,102201.23
2023-01-11T00:30:17.905Z,102201.55
2023-01-11T00:30:41.128Z,102198.95
2023-01-11T00:31:02.798Z,102199.11
2023-01-11T00:31:24.974Z,102196.35
2023-01-11T00:31:46.801Z,102198.90
2023-01-11T00:32:08.291Z,102199.55
2023-01-11T00:32:31.036Z,102192.02
2023-01-11T00:32:58.786Z,102193.70
2023-01-11T00:33:20.309Z,102197.14
2023-01-11T00:33:42.360Z,102198.17
2023-01-11T00:34:04.195Z,102195.95
2023-01-11T00:34:25.830Z,102192.54
2023-01-11T00:34:47.433Z,102195.98
2023-01-11T00:35:09.295Z,102193.94
2023-01-11T00:35:31.911Z,102196.52
2023-01-11T00:35:53.723Z,102192.08
2023-01-11T00:36:15.369Z,102193.98
2023-01-11T00:36:37.046Z,102196.73
2023-01-11T00:36:58.723Z,102193.69
2023-01-11T00:37:20.925Z,102195.58
2023-01-11T00:37:42.528Z,102192.34
2023-01-11T00:38:05.040Z,102192.69
2023-01-11T00:38:43.144Z,102192.88
2023-01-11T00:39:05.783Z,102195.28
2023-01-11T00:39:27.841Z,102196.33
2023-01-11T00:39:49.625Z,102193.92
2023-01-11T00:40:11.610Z,102193.07
2023-01-11T00:40:33.439Z,102195.48
2023-01-11T00:40:54.972Z,102195.83
2023-01-11T00:41:36.198Z,102195.98
2023-01-11T00:42:16.692Z,102194.45
2023-01-11T00:42:56.990Z,102196.84
2023-01-11T00:43:37.591Z,102194.27
2023-01-11T00:44:18.608Z,102195.13
2023-01-11T00:44:58.999Z,102191.72
2023-01-11T00:45:39.405Z,102194.49
2023-01-11T00:46:21.338Z,102195.01
2023-01-11T00:47:01.845Z,102197.58
2023-01-11T00:47:42.439Z,102192.29
2023-01-11T00:48:05.355Z,102191.44
2023-01-11T00:48:27.440Z,102192.65
2023-01-11T00:48:49.330Z,102188.71
2023-01-11T00:49:11.008Z,102187.17
2023-01-11T00:49:32.698Z,102186.50
2023-01-11T00:49:54.380Z,102193.68
2023-01-11T00:50:16.072Z,102195.05
2023-01-11T00:50:38.554Z,102198.99
2023-01-11T00:51:00.135Z,102196.43
2023-01-11T00:51:21.885Z,102199.00
2023-01-11T00:51:43.466Z,102194.55
2023-01-11T00:52:08.221Z,102192.84
2023-01-11T00:52:29.836Z,102195.73
2023-01-11T00:52:51.488Z,102197.77
2023-01-11T00:53:14.021Z,102199.80
2023-01-11T00:53:35.798Z,102199.78
2023-01-11T00:53:57.389Z,102203.02
2023-01-11T00:54:19.673Z,102200.61
2023-01-11T00:54:41.402Z,102201.63
2023-01-11T00:55:03.372Z,102198.20
2023-01-11T00:55:25.540Z,102200.23
2023-01-11T00:55:47.367Z,102203.64
2023-01-11T00:56:09.221Z,102203.11
2023-01-11T00:56:30.994Z,102206.16
2023-01-11T00:56:52.986Z,102200.67
2023-01-11T00:57:14.664Z,102202.87
2023-01-11T00:57:36.345Z,102203.36
2023-01-11T00:57:58.538Z,102203.85
2023-01-11T00:58:20.123Z,102202.82
2023-01-11T00:58:41.734Z,102202.63
2023-01-11T00:59:04.301Z,102199.53
2023-01-11T00:59:25.881Z,102199.02
2023-01-11T00:59:47.932Z,102205.67
2023-01-11T01:00:12.111Z,102205.16
2023-01-11T01:00:35.427Z,102208.94
2023-01-11T01:00:58.135Z,102207.41
2023-01-11T01:01:19.974Z,102206.06
2023-01-11T01:01:41.829Z,102208.31
2023-01-11T01:02:04.008Z,102209.54
2023-01-11T01:02:25.822Z,102207.01
2023-01-11T01:02:47.730Z,102206.34
2023-01-11T01:03:09.659Z,102203.80
2023-01-11T01:03:31.590Z,102209.28
2023-01-11T01:03:53.740Z,102211.20
2023-01-11T01:04:16.268Z,102207.45
2023-01-11T01:04:38.353Z,102206.95
2023-01-11T01:05:00.032Z,102204.75
2023-01-11T01:05:21.903Z,102209.37
2023-01-11T01:05:43.586Z,102215.00
2023-01-11T01:06:07.312Z,102211.95
2023-01-11T01:06:28.985Z,102207.34
2023-01-11T01:06:50.786Z,102213.34
2023-01-11T01:07:13.333Z,102208.71
2023-01-11T01:07:35.605Z,102209.77
2023-01-11T01:07:57.360Z,102211.98
2023-01-11T01:08:19.473Z,102210.29
2023-01-11T01:08:41.539Z,102210.13
2023-01-11T01:09:03.179Z,102209.60
2023-01-11T01:09:25.529Z,102209.45
2023-01-11T01:09:47.303Z,102205.34
2023-01-11T01:10:09.702Z,102208.59
2023-01-11T01:10:31.587Z,102207.39
2023-01-11T01:10:53.690Z,102207.21
2023-01-11T01:11:16.217Z,102211.81
2023-01-11T01:11:38.065Z,102210.61
2023-01-11T01:12:01.635Z,102211.96
2023-01-11T01:12:42.299Z,102209.38
2023-01-11T01:13:23.207Z,102212.23
2023-01-11T01:14:03.715Z,102216.48
2023-01-11T01:14:25.487Z,102219.89
2023-01-11T01:14:47.272Z,102214.91
2023-01-11T01:15:09.156Z,102215.92
2023-01-11T01:15:31.585Z,102217.95
2023-01-11T01:15:55.990Z,102219.97
2023-01-11T01:16:19.022Z,102217.23
2023-01-11T01:16:41.822Z,102216.67
2023-01-11T01:17:06.570Z,102216.66
2023-01-11T01:17:28.763Z,102214.95
2023-01-11T01:17:54.638Z,102216.81
2023-01-11T01:18:16.231Z,102217.46
2023-01-11T01:18:38.213Z,102212.00
2023-01-11T01:18:59.890Z,102212.35
2023-01-11T01:19:22.128Z,102212.17
2023-01-11T01:19:43.951Z,102215.27
2023-01-11T01:20:06.488Z,102215.96
2023-01-11T01:20:28.668Z,102214.10
2023-01-11T01:20:50.450Z,102219.09
2023-01-11T01:21:12.057Z,102219.79
2023-01-11T01:21:33.865Z,102217.94
2023-01-11T01:21:56.010Z,102219.68
2023-01-11T01:22:17.893Z,102213.21
2023-01-11T01:22:39.474Z,102212.88
2023-01-11T01:23:01.275Z,102211.18
2023-01-11T01:23:26.323Z,102216.51
2023-01-11T01:23:52.617Z,102218.08
2023-01-11T01:24:14.950Z,102215.52
2023-01-11T01:24:37.193Z,102216.91
2023-01-11T01:24:58.873Z,102219.33
2023-01-11T01:25:20.890Z,102219.16
2023-01-11T01:25:42.464Z,102219.66
2023-01-11T01:26:04.541Z,102218.66
2023-01-11T01:26:26.321Z,102221.25
2023-01-11T01:26:48.106Z,102217.32
2023-01-11T01:27:15.204Z,102216.48
2023-01-11T01:27:36.900Z,102218.36
2023-01-11T01:27:58.681Z,102217.00
2023-01-11T01:28:21.585Z,102217.17
2023-01-11T01:28:43.266Z,102215.48
2023-01-11T01:29:05.156Z,102215.99
2023-01-11T01:29:27.040Z,102217.17
2023-01-11T01:29:48.723Z,102215.80
2023-01-11T01:30:10.602Z,102217.67
2023-01-11T01:30:33.146Z,102217.48
2023-01-11T01:30:54.804Z,102218.31
2023-01-11T01:31:19.113Z,102219.49
2023-01-11T01:31:42.856Z,102215.20
2023-01-11T01:32:04.545Z,102217.39
2023-01-11T01:32:27.652Z,102217.72
2023-01-11T01:32:49.237Z,102217.52
2023-01-11T01:33:10.860Z,102220.94
2023-01-11T01:33:32.600Z,102213.39
2023-01-11T01:33:54.668Z,102213.90
2023-01-11T01:34:16.576Z,102220.03
2023-01-11T01:34:38.576Z,102218.48
2023-01-11T01:35:00.255Z,102217.27
2023-01-11T01:35:21.994Z,102213.99
2023-01-11T01:35:43.762Z,102214.31
2023-01-11T01:36:05.704Z,102208.99
2023-01-11T01:36:27.329Z,102216.50
2023-01-11T01:36:49.068Z,102213.58
2023-01-11T01:37:10.713Z,102211.34
2023-01-11T01:37:32.330Z,102212.17
2023-01-11T01:37:53.968Z,102210.13
2023-01-11T01:38:15.798Z,102215.93
2023-01-11T01:38:37.411Z,102215.44
2023-01-11T01:39:00.417Z,102215.95
2023-01-11T01:39:22.176Z,102213.59
2023-01-11T01:39:45.642Z,102212.08
2023-01-11T01:40:07.691Z,102211.07
2023-01-11T01:40:31.414Z,102209.71
2023-01-11T01:40:53.509Z,102209.05
2023-01-11T01:41:15.496Z,102213.19
2023-01-11T01:41:37.110Z,102209.60
2023-01-11T01:41:59.061Z,102210.48
2023-01-11T01:42:21.060Z,102210.32
2023-01-11T01:42:42.678Z,102209.48
2023-01-11T01:43:04.780Z,102204.20
2023-01-11T01:43:47.470Z,102208.16
2023-01-11T01:44:28.488Z,102204.26
2023-01-11T01:44:57.425Z,102202.04
2023-01-11T01:45:23.343Z,102206.67
2023-01-11T01:45:45.292Z,102212.17
2023-01-11T01:46:06.928Z,102208.93
2023-01-11T01:46:29.354Z,102205.86
2023-01-11T01:46:51.062Z,102208.10
2023-01-11T01:47:14.968Z,102212.04
2023-01-11T01:47:36.682Z,102208.98
2023-01-11T01:48:01.737Z,102211.54
2023-01-11T01:48:24.703Z,102216.17
2023-01-11T01:48:47.989Z,102217.20
2023-01-11T01:49:11.684Z,102215.67
2023-01-11T01:49:33.397Z,102222.69
2023-01-11T01:49:55.763Z,102222.86
2023-01-11T01:50:21.676Z,102223.38
2023-01-11T01:50:47.420Z,102225.61
2023-01-11T01:51:09.198Z,102228.67
2023-01-11T01:51:38.751Z,102230.73
2023-01-11T01:52:00.331Z,102233.45
2023-01-11T01:52:28.411Z,102232.09
2023-01-11T01:52:51.334Z,102232.23
2023-01-11T01:53:16.632Z,102231.21
2023-01-11T01:53:40.051Z,102233.75
2023-01-11T01:54:03.273Z,102233.23
2023-01-11T01:54:27.331Z,102230.98
2023-01-11T01:54:48.934Z,102234.72
2023-01-11T01:55:11.487Z,102234.38
2023-01-11T01:55:34.637Z,102236.58
2023-01-11T01:55:57.917Z,102236.55
2023-01-11T01:56:22.874Z,102234.30
2023-01-11T01:56:48.450Z,102233.26
2023-01-11T01:57:12.003Z,102236.12
2023-01-11T01:57:33.978Z,102238.17
2023-01-11T01:57:55.839Z,102235.95
2023-01-11T01:58:18.041Z,102235.90
2023-01-11T01:58:40.873Z,102240.17
2023-01-11T01:59:04.365Z,102236.71
2023-01-11T01:59:26.202Z,102234.14
2023-01-11T01:59:51.107Z,102236.19
2023-01-11T02:00:13.336Z,102230.73
2023-01-11T02:00:37.230Z,102231.24
2023-01-11T02:01:18.825Z,102231.61
2023-01-11T02:01:48.380Z,102232.86
2023-01-11T02:02:10.802Z,102231.02
2023-01-11T02:02:32.587Z,102233.42
2023-01-11T02:02:54.771Z,102231.75
2023-01-11T02:03:20.675Z,102229.38
2023-01-11T02:03:42.271Z,102228.19
2023-01-11T02:04:05.256Z,102230.41
2023-01-11T02:04:27.262Z,102233.86
2023-01-11T02:04:49.031Z,102234.71
2023-01-11T02:05:11.019Z,102230.96
2023-01-11T02:05:32.710Z,102232.52
2023-01-11T02:05:54.396Z,102237.65
2023-01-11T02:06:16.091Z,102234.57
2023-01-11T02:06:38.090Z,102231.84
2023-01-11T02:07:02.395Z,102230.82
2023-01-11T02:07:29.126Z,102231.84
2023-01-11T02:07:51.615Z,102228.95
2023-01-11T02:08:25.879Z,102229.81
2023-01-11T02:08:48.824Z,102231.36
2023-01-11T02:09:17.601Z,102226.90
2023-01-11T02:09:42.761Z,102230.33
2023-01-11T02:10:07.820Z,102226.58
2023-01-11T02:10:29.910Z,102228.80
2023-01-11T02:10:52.514Z,102229.30
2023-01-11T02:11:29.241Z,102226.91
2023-01-11T02:11:52.970Z,102223.48
2023-01-11T02:12:14.648Z,102220.08
2023-01-11T02:12:40.014Z,102214.95
2023-01-11T02:13:05.777Z,102217.69
2023-01-11T02:13:27.487Z,102216.33
2023-01-11T02:13:49.143Z,102218.39
2023-01-11T02:14:12.810Z,102214.12
2023-01-11T02:14:35.285Z,102210.70
2023-01-11T02:14:58.589Z,102213.27
2023-01-11T02:15:20.813Z,102215.84
2023-01-11T02:15:42.571Z,102214.81
2023-01-11T02:16:08.267Z,102209.69
2023-01-11T02:16:30.072Z,102211.91
2023-01-11T02:16:52.325Z,102210.73
2023-01-11T02:17:15.633Z,102211.73
2023-01-11T02:17:37.315Z,102211.41
2023-01-11T02:17:59.207Z,102210.00
2023-01-11T02:18:21.137Z,102212.23
2023-01-11T02:18:42.912Z,102212.89
2023-01-11T02:19:04.505Z,102210.83
2023-01-11T02:19:45.772Z,102211.64
2023-01-11T02:20:26.376Z,102209.73
2023-01-11T02:21:02.786Z,102210.55
2023-01-11T02:21:35.750Z,102212.39
2023-01-11T02:22:00.449Z,102212.02
2023-01-11T02:22:41.020Z,102214.56
2023-01-11T02:23:15.640Z,102217.26
2023-01-11T02:23:37.526Z,102216.73
2023-01-11T02:24:04.741Z,102217.73
2023-01-11T02:24:46.073Z,102219.92
2023-01-11T02:25:13.874Z,102216.13
2023-01-11T02:25:39.259Z,102218.17
2023-01-11T02:26:03.598Z,102218.35
2023-01-11T02:26:44.690Z,102215.79
2023-01-11T02:27:25.643Z,102215.64
2023-01-11T02:27:53.025Z,102211.39
2023-01-11T02:28:20.217Z,102215.18
2023-01-11T02:28:47.855Z,102218.29
2023-01-11T02:29:09.714Z,102218.32
2023-01-11T02:29:34.672Z,102219.86
2023-01-11T02:30:05.803Z,102219.55
2023-01-11T02:30:35.933Z,102220.75
2023-01-11T02:31:19.688Z,102218.72
2023-01-11T02:32:04.816Z,102216.88
2023-01-11T02:32:47.559Z,102220.98
2023-01-11T02:33:15.224Z,102218.45
2023-01-11T02:33:40.029Z,102219.16
2023-01-11T02:34:07.537Z,102216.08
2023-01-11T02:34:35.154Z,102215.74
2023-01-11T02:34:59.696Z,102212.51
2023-01-11T02:35:39.996Z,102217.33
2023-01-11T02:36:09.141Z,102218.88
2023-01-11T02:36:31.639Z,102220.27
2023-01-11T02:37:03.245Z,102220.25
2023-01-11T02:37:43.720Z,102223.35
2023-01-11T02:38:07.214Z,102222.83
2023-01-11T02:38:32.837Z,102222.81
2023-01-11T02:39:01.786Z,102226.57
2023-01-11T02:39:30.523Z,102225.50
2023-01-11T02:39:55.476Z,102224.80
2023-01-11T02:40:26.474Z,102223.76
2023-01-11T02:41:17.606Z,102224.77
2023-01-11T02:41:58.630Z,102224.37
2023-01-11T02:42:43.321Z,102224.86
2023-01-11T02:43:26.173Z,102217.98
2023-01-11T02:44:07.999Z,102217.27
2023-01-11T02:44:53.955Z,102222.52
2023-01-11T02:45:19.717Z,102221.13
2023-01-11T02:45:47.611Z,102221.97
2023-01-11T02:46:14.460Z,102220.60
2023-01-11T02:46:41.968Z,102220.43
2023-01-11T02:47:04.177Z,102216.02
2023-01-11T02:47:34.995Z,102217.55
2023-01-11T02:48:00.131Z,102214.51
2023-01-11T02:48:30.837Z,102215.40
2023-01-11T02:48:56.684Z,102216.45
2023-01-11T02:49:20.950Z,102214.75
2023-01-11T02:49:46.751Z,102212.22
2023-01-11T02:50:29.986Z,102215.30
2023-01-11T02:50:52.514Z,102209.00
2023-01-11T02:51:19.838Z,102204.77
2023-01-11T02:51:46.905Z,102208.35
2023-01-11T02:52:12.344Z,102210.08
2023-01-11T02:52:57.566Z,102211.96
2023-01-11T02:53:27.337Z,102211.13
2023-01-11T02:53:51.365Z,102210.61
2023-01-11T02:54:13.357Z,102209.94
2023-01-11T02:54:35.047Z,102210.98
2023-01-11T02:54:57.156Z,102214.58
2023-01-11T02:55:20.699Z,102212.02
2023-01-11T02:55:47.961Z,102217.33
2023-01-11T02:56:10.902Z,102217.16
2023-01-11T02:57:35.652Z,102214.52
2023-01-11T02:57:57.962Z,102213.94
2023-01-11T02:58:20.245Z,102212.40
2023-01-11T02:58:42.247Z,102214.29
2023-01-11T02:59:04.016Z,102215.31
2023-01-11T02:59:29.483Z,102215.14
2023-01-11T02:59:51.315Z,102219.41
2023-01-11T03:00:13.461Z,102220.60
2023-01-11T03:00:37.497Z,102218.88
2023-01-11T03:00:59.288Z,102218.53
2023-01-11T03:01:22.975Z,102215.42
2023-01-11T03:01:46.199Z,102219.02
2023-01-11T03:02:08.078Z,102220.52
2023-01-11T03:02:29.985Z,102210.76
2023-01-11T03:03:10.481Z,102214.17
2023-01-11T03:03:34.066Z,102213.79
2023-01-11T03:03:56.420Z,102220.59
2023-01-11T03:04:34.058Z,102219.57
2023-01-11T03:04:55.850Z,102221.23
2023-01-11T03:05:17.630Z,102217.45
2023-01-11T03:05:43.998Z,102213.65
2023-01-11T03:06:07.087Z,102215.70
2023-01-11T03:06:31.211Z,102212.77
2023-01-11T03:07:13.260Z,102213.11
2023-01-11T03:07:34.983Z,102214.80
2023-01-11T03:07:56.728Z,102218.23
2023-01-11T03:08:38.700Z,102219.61
2023-01-11T03:09:06.082Z,102219.30
2023-01-11T03:09:32.398Z,102221.05
2023-01-11T03:10:06.045Z,102222.09
2023-01-11T03:10:46.541Z,102222.95
2023-01-11T03:11:45.147Z,102224.69
2023-01-11T03:12:28.816Z,102219.77
2023-01-11T03:12:59.808Z,102224.06
2023-01-11T03:13:41.839Z,102226.80
2023-01-11T03:14:18.661Z,102225.29
2023-01-11T03:14:40.454Z,102226.31
2023-01-11T03:15:05.723Z,102227.52
2023-01-11T03:15:27.490Z,102231.65
2023-01-11T03:15:53.956Z,102231.64
2023-01-11T03:16:23.312Z,102231.48
2023-01-11T03:17:20.502Z,102232.88
2023-01-11T03:18:01.118Z,102232.71
2023-01-11T03:18:23.310Z,102236.33
2023-01-11T03:18:47.791Z,102236.35
2023-01-11T03:19:13.319Z,102238.74
2023-01-11T03:19:36.939Z,102236.54
2023-01-11T03:20:10.296Z,102233.11
2023-01-11T03:20:33.382Z,102235.14
2023-01-11T03:20:59.475Z,102236.52
2023-01-11T03:21:40.079Z,102233.23
2023-01-11T03:22:07.748Z,102237.47
2023-01-11T03:22:35.100Z,102238.98
2023-01-11T03:22:59.802Z,102236.73
2023-01-11T03:23:25.837Z,102236.38
2023-01-11T03:23:56.613Z,102233.28
2023-01-11T03:24:18.602Z,102236.33
2023-01-11T03:24:48.312Z,102239.06
2023-01-11T03:25:14.442Z,102236.64
2023-01-11T03:25:38.888Z,102238.85
2023-01-11T03:26:07.424Z,102240.02
2023-01-11T03:26:32.480Z,102238.98
2023-01-11T03:27:06.536Z,102239.44
2023-01-11T03:27:46.228Z,102239.08
2023-01-11T03:28:15.476Z,102237.71
2023-01-11T03:28:37.253Z,102237.55
2023-01-11T03:29:17.347Z,102234.66
2023-01-11T03:29:40.459Z,102235.71
2023-01-11T03:30:13.702Z,102234.71
2023-01-11T03:30:37.528Z,102233.55
2023-01-11T03:31:02.337Z,102230.83
2023-01-11T03:31:30.080Z,102234.27
2023-01-11T03:32:11.008Z,102228.14
2023-01-11T03:32:42.114Z,102232.27
2023-01-11T03:33:03.892Z,102230.92
2023-01-11T03:33:32.314Z,102230.92
2023-01-11T03:33:56.755Z,102227.88
2023-01-11T03:34:19.877Z,102227.02
2023-01-11T03:34:50.160Z,102229.25
2023-01-11T03:35:19.722Z,102226.88
2023-01-11T03:36:00.113Z,102227.23
2023-01-11T03:36:41.832Z,102225.20
2023-01-11T03:37:06.287Z,102228.13
2023-01-11T03:37:33.785Z,102225.40
2023-01-11T03:38:18.683Z,102222.15
2023-01-11T03:38:42.337Z,102226.27
2023-01-11T03:39:09.209Z,102222.17
2023-01-11T03:39:39.174Z,102221.15
2023-01-11T03:40:06.173Z,102220.10
2023-01-11T03:40:29.084Z,102221.13
2023-01-11T03:40:51.900Z,102219.56
2023-01-11T03:41:17.971Z,102219.20
2023-01-11T03:41:39.646Z,102220.02
2023-01-11T03:42:01.755Z,102218.81
2023-01-11T03:42:23.837Z,102217.95
2023-01-11T03:43:05.260Z,102221.84
2023-01-11T03:43:27.044Z,102218.74
2023-01-11T03:43:48.832Z,102220.59
2023-01-11T03:44:11.025Z,102222.11
2023-01-11T03:44:35.154Z,102222.62
2023-01-11T03:44:56.847Z,102227.90
2023-01-11T03:45:18.833Z,102223.27
2023-01-11T03:45:43.580Z,102225.83
2023-01-11T03:46:15.506Z,102223.42
2023-01-11T03:46:39.161Z,102223.89
2023-01-11T03:47:05.293Z,102222.16
2023-01-11T03:47:27.491Z,102219.91
2023-01-11T03:47:49.196Z,102222.48
2023-01-11T03:48:21.900Z,102223.67
2023-01-11T03:48:47.882Z,102224.88
2023-01-11T03:49:11.216Z,102221.98
2023-01-11T03:49:53.803Z,102223.88
2023-01-11T03:50:15.637Z,102220.48
2023-01-11T03:50:37.416Z,102221.04
2023-01-11T03:50:59.511Z,102223.61
2023-01-11T03:51:22.618Z,102220.90
2023-01-11T03:51:44.910Z,102222.95
2023-01-11T03:52:07.621Z,102220.76
2023-01-11T03:52:31.450Z,102221.11
2023-01-11T03:52:53.745Z,102219.23
2023-01-11T03:53:15.836Z,102221.98
2023-01-11T03:53:37.843Z,102221.32
2023-01-11T03:54:00.129Z,102223.02
2023-01-11T03:54:23.342Z,102225.27
2023-01-11T03:54:45.646Z,102226.48
2023-01-11T03:55:08.623Z,102224.44
2023-01-11T03:55:30.654Z,102226.31
2023-01-11T03:55:53.958Z,102224.96
2023-01-11T03:56:16.168Z,102221.39
2023-01-11T03:56:44.170Z,102224.83
2023-01-11T03:57:10.962Z,102226.88
2023-01-11T03:57:33.456Z,102225.36
2023-01-11T03:57:55.250Z,102225.21
2023-01-11T03:58:17.033Z,102226.08
2023-01-11T03:58:39.023Z,102224.52
2023-01-11T03:59:01.020Z,102227.27
2023-01-11T03:59:22.795Z,102226.24
2023-01-11T03:59:44.581Z,102227.09
2023-01-11T04:00:06.674Z,102227.79
2023-01-11T04:00:28.457Z,102223.18
2023-01-11T04:00:50.288Z,102228.47
2023-01-11T04:01:12.198Z,102230.20
2023-01-11T04:01:34.141Z,102229.02
2023-01-11T04:01:56.010Z,102229.35
2023-01-11T04:02:36.915Z,102227.99
2023-01-11T04:03:00.031Z,102228.35
2023-01-11T04:03:22.114Z,102228.52
2023-01-11T04:03:43.834Z,102227.50
2023-01-11T04:04:05.654Z,102230.41
2023-01-11T04:04:27.472Z,102236.21
2023-01-11T04:04:49.358Z,102233.98
2023-01-11T04:05:11.143Z,102237.73
2023-01-11T04:05:33.087Z,102234.63
2023-01-11T04:05:55.535Z,102236.84
2023-01-11T04:06:17.316Z,102237.85
2023-01-11T04:06:39.995Z,102241.77
2023-01-11T04:07:01.978Z,102240.05
2023-01-11T04:07:23.822Z,102240.04
2023-01-11T04:07:45.580Z,102238.12
2023-01-11T04:08:07.364Z,102240.68
2023-01-11T04:08:29.147Z,102239.46
2023-01-11T04:08:50.889Z,102239.97
2023-01-11T04:09:12.616Z,102241.14
2023-01-11T04:09:35.162Z,102235.81
2023-01-11T04:09:58.942Z,102238.55
2023-01-11T04:10:20.653Z,102240.08
2023-01-11T04:10:42.411Z,102237.15
2023-01-11T04:11:05.016Z,102235.77
2023-01-11T04:11:26.729Z,102233.70
2023-01-11T04:11:48.698Z,102235.73
2023-01-11T04:12:10.578Z,102235.18
2023-01-11T04:12:32.375Z,102231.77
2023-01-11T04:12:54.121Z,102233.30
2023-01-11T04:13:15.825Z,102229.53
2023-01-11T04:13:37.608Z,102230.41
2023-01-11T04:13:59.393Z,102232.83
2023-01-11T04:14:21.089Z,102230.80
2023-01-11T04:14:42.819Z,102231.84
2023-01-11T04:15:05.394Z,102233.58
2023-01-11T04:15:27.146Z,102232.08
2023-01-11T04:15:48.926Z,102231.92
2023-01-11T04:16:10.669Z,102231.80
2023-01-11T04:16:32.541Z,102229.73
2023-01-11T04:16:54.283Z,102227.19
2023-01-11T04:17:16.067Z,102224.83
2023-01-11T04:17:37.849Z,102228.61
2023-01-11T04:18:05.564Z,102228.79
2023-01-11T04:18:27.300Z,102235.65
2023-01-11T04:18:49.032Z,102226.92
2023-01-11T04:19:10.821Z,102226.60
2023-01-11T04:19:32.525Z,102223.02
2023-01-11T04:19:54.284Z,102227.13
2023-01-11T04:20:16.072Z,102224.23
2023-01-11T04:20:38.977Z,102223.73
2023-01-11T04:21:00.764Z,102225.11
2023-01-11T04:21:22.549Z,102223.58
2023-01-11T04:21:44.286Z,102221.52
2023-01-11T04:22:06.021Z,102223.42
2023-01-11T04:22:27.711Z,102226.50
2023-01-11T04:22:49.482Z,102220.48
2023-01-11T04:23:11.474Z,102223.40
2023-01-11T04:23:33.459Z,102224.77
2023-01-11T04:23:55.246Z,102224.39
2023-01-11T04:24:18.661Z,102222.66
2023-01-11T04:24:40.455Z,102221.29
2023-01-11T04:25:02.236Z,102226.40
2023-01-11T04:25:24.018Z,102219.88
2023-01-11T04:25:47.163Z,102222.75
2023-01-11T04:26:08.919Z,102221.36
2023-01-11T04:26:30.598Z,102222.20
2023-01-11T04:26:52.307Z,102223.89
2023-01-11T04:27:14.075Z,102221.13
2023-01-11T04:27:35.816Z,102223.67
2023-01-11T04:27:57.837Z,102226.92
2023-01-11T04:28:19.623Z,102226.19
2023-01-11T04:28:41.406Z,102226.55
2023-01-11T04:29:03.195Z,102227.04
2023-01-11T04:29:24.908Z,102224.61
2023-01-11T04:29:46.764Z,102229.04
2023-01-11T04:30:09.069Z,102223.04
2023-01-11T04:30:30.784Z,102227.29
2023-01-11T04:30:52.727Z,102228.98
2023-01-11T04:31:14.664Z,102225.04
2023-01-11T04:31:36.641Z,102227.61
2023-01-11T04:31:58.492Z,102227.44
2023-01-11T04:32:20.275Z,102231.05
2023-01-11T04:32:42.058Z,102231.06
2023-01-11T04:33:03.842Z,102232.46
2023-01-11T04:33:25.628Z,102232.83
2023-01-11T04:33:47.319Z,102233.52
2023-01-11T04:34:09.051Z,102236.98
2023-01-11T04:34:30.878Z,102235.45
2023-01-11T04:34:52.665Z,102235.30
2023-01-11T04:35:14.456Z,102235.32
2023-01-11T04:35:36.244Z,102233.80
2023-01-11T04:35:57.944Z,102236.89
2023-01-11T04:36:19.654Z,102235.70
2023-01-11T04:36:41.407Z,102235.21
2023-01-11T04:37:03.367Z,102230.10
2023-01-11T04:37:25.154Z,102236.92
2023-01-11T04:37:46.945Z,102236.09
2023-01-11T04:38:08.729Z,102237.63
2023-01-11T04:38:30.507Z,102238.98
2023-01-11T04:38:52.301Z,102235.40
2023-01-11T04:39:14.008Z,102241.41
2023-01-11T04:39:35.762Z,102240.41
2023-01-11T04:39:57.543Z,102242.46
2023-01-11T04:40:19.367Z,102239.22
2023-01-11T04:40:41.116Z,102241.44
2023-01-11T04:41:23.576Z,102242.64
2023-01-11T04:42:04.366Z,102244.04
2023-01-11T04:42:26.091Z,102245.90
2023-01-11T04:42:47.837Z,102250.52
2023-01-11T04:43:09.576Z,102249.33
2023-01-11T04:43:31.398Z,102248.48
2023-01-11T04:43:58.812Z,102251.73
2023-01-11T04:44:20.516Z,102254.95